Current Weather

Plzen Line

Plzen Line, Czechia (LKLN)

Report from: Thursday, July 18, 2024 1:00 PM UTC
Current time: Thursday, July 18, 2024 2:15 PM UTC

Nearby weather – Weather history – Daily summaries
Weather forecast

Temperature27.0°C (80.6°F)
Heat index27.1°C (80.9°F)
Dew point12.0°C (53.6°F)
Winds 2 kts (1 m/s, 2.3 mph) Vrb
Winds variableWinds variable
Visibility6.2 mi. (10 km)
Clouds Scattered clouds 6,700 ft. (2,042 m)
Altimeter30.21 in.Hg (1023 mB)
Relative humidity39 %
Density altitude1,256 ft. (383 m)
Remarks Fully automated report
Flight conditions Visual Meteorological Conditions
Raw dataLKLN 181300Z AUTO VRB02KT 9999 SCT067 27/12 Q1023
An error has occurred. This application may no longer respond until reloaded. Reload 🗙